createdAt,value
2022-12-12T00:01:40.355Z,22.10
2022-12-12T00:04:08.806Z,22.40
2022-12-12T00:06:37.724Z,22.50
2022-12-12T00:09:06.046Z,22.70
2022-12-12T00:11:34.718Z,22.80
2022-12-12T00:14:03.034Z,22.60
2022-12-12T00:16:31.560Z,22.30
2022-12-12T00:19:00.229Z,22.00
2022-12-12T00:21:30.102Z,22.10
2022-12-12T00:23:59.187Z,22.30
2022-12-12T00:26:30.156Z,22.50
2022-12-12T00:29:00.504Z,22.60
2022-12-12T00:31:29.755Z,22.80
2022-12-12T00:33:58.177Z,22.60
2022-12-12T00:36:29.613Z,22.20
2022-12-12T00:38:58.726Z,22.10
2022-12-12T00:41:27.185Z,22.00
2022-12-12T00:43:55.476Z,22.00
2022-12-12T00:46:25.551Z,22.20
2022-12-12T00:48:58.883Z,22.40
2022-12-12T00:51:30.078Z,22.50
2022-12-12T00:54:00.655Z,22.70
2022-12-12T00:56:30.438Z,22.80
2022-12-12T00:58:58.920Z,22.60
2022-12-12T01:01:30.346Z,22.20
2022-12-12T01:03:59.381Z,22.00
2022-12-12T01:06:28.582Z,22.10
2022-12-12T01:08:57.208Z,22.30
2022-12-12T01:11:25.904Z,22.50
2022-12-12T01:13:55.103Z,22.70
2022-12-12T01:16:24.097Z,22.70
2022-12-12T01:18:52.531Z,22.40
2022-12-12T01:21:21.221Z,22.10
2022-12-12T01:23:49.780Z,22.00
2022-12-12T01:26:18.906Z,22.10
2022-12-12T01:28:48.137Z,22.40
2022-12-12T01:31:16.992Z,22.60
2022-12-12T01:33:45.586Z,22.80
2022-12-12T01:36:14.846Z,22.70
2022-12-12T01:38:45.168Z,22.40
2022-12-12T01:41:13.804Z,22.20
2022-12-12T01:43:42.214Z,22.10
2022-12-12T01:46:32.132Z,22.00
2022-12-12T01:49:14.079Z,22.00
2022-12-12T01:51:43.744Z,21.90
2022-12-12T01:54:17.520Z,21.80
2022-12-12T01:56:48.132Z,21.70
2022-12-12T01:59:21.691Z,21.80
2022-12-12T02:01:50.405Z,22.00
2022-12-12T02:04:18.670Z,22.20
2022-12-12T02:06:48.355Z,22.40
2022-12-12T02:09:17.777Z,22.50
2022-12-12T02:11:52.671Z,22.70
2022-12-12T02:14:34.547Z,22.70
2022-12-12T02:17:15.337Z,22.30
2022-12-12T02:20:20.352Z,22.00
2022-12-12T02:23:19.503Z,22.10
2022-12-12T02:25:50.739Z,22.40
2022-12-12T02:28:49.725Z,22.60
2022-12-12T02:31:34.582Z,22.80
2022-12-12T02:34:08.721Z,22.50
2022-12-12T02:36:46.021Z,22.10
2022-12-12T02:39:58.843Z,22.10
2022-12-12T02:42:36.473Z,22.30
2022-12-12T02:45:18.989Z,22.50
2022-12-12T02:48:01.809Z,22.70
2022-12-12T02:50:32.329Z,22.80
2022-12-12T02:53:00.985Z,22.40
2022-12-12T02:55:32.479Z,22.10
2022-12-12T02:58:04.443Z,22.00
2022-12-12T03:00:43.392Z,22.10
2022-12-12T03:03:23.436Z,22.40
2022-12-12T03:06:00.352Z,22.50
2022-12-12T03:08:58.099Z,22.70
2022-12-12T03:11:32.367Z,22.70
2022-12-12T03:14:26.721Z,22.40
2022-12-12T03:17:18.825Z,22.10
2022-12-12T03:20:15.602Z,22.20
2022-12-12T03:22:46.869Z,22.40
2022-12-12T03:25:26.136Z,22.60
2022-12-12T03:28:09.989Z,22.80
2022-12-12T03:30:43.269Z,22.60
2022-12-12T03:33:43.337Z,22.20
2022-12-12T03:36:33.442Z,22.10
2022-12-12T03:39:10.139Z,22.20
2022-12-12T03:41:52.000Z,22.40
2022-12-12T03:44:28.550Z,22.60
2022-12-12T03:47:07.516Z,22.80
2022-12-12T03:50:01.185Z,22.80
2022-12-12T03:52:37.977Z,22.50
2022-12-12T03:55:15.858Z,22.10
2022-12-12T03:57:59.984Z,22.10
2022-12-12T04:00:31.632Z,22.30
2022-12-12T04:03:29.205Z,22.50
2022-12-12T04:06:13.264Z,22.70
2022-12-12T04:08:41.547Z,22.90
2022-12-12T04:11:20.901Z,22.60
2022-12-12T04:13:54.683Z,22.30
2022-12-12T04:16:30.868Z,22.10
2022-12-12T04:19:24.736Z,22.40
2022-12-12T04:21:55.633Z,22.60
2022-12-12T04:24:29.743Z,22.70
2022-12-12T04:27:14.242Z,22.90
2022-12-12T04:29:52.767Z,22.60
2022-12-12T04:32:25.843Z,22.20
2022-12-12T04:35:14.167Z,22.10
2022-12-12T04:37:45.259Z,22.30
2022-12-12T04:40:19.497Z,22.50
2022-12-12T04:42:55.062Z,22.60
2022-12-12T04:45:29.330Z,22.80
2022-12-12T04:47:58.913Z,22.70
2022-12-12T04:50:31.521Z,22.50
2022-12-12T04:53:03.627Z,22.30
2022-12-12T04:55:39.205Z,22.10
2022-12-12T04:58:08.621Z,22.10
2022-12-12T05:01:12.958Z,22.10
2022-12-12T05:04:01.594Z,22.20
2022-12-12T05:06:35.903Z,22.50
2022-12-12T05:09:04.768Z,22.60
2022-12-12T05:11:34.606Z,22.70
2022-12-12T05:14:02.755Z,22.80
2022-12-12T05:16:35.829Z,22.50
2022-12-12T05:19:04.105Z,22.10
2022-12-12T05:21:32.190Z,22.10
2022-12-12T05:24:00.562Z,22.20
2022-12-12T05:26:34.048Z,22.40
2022-12-12T05:29:07.292Z,22.60
2022-12-12T05:31:36.929Z,22.80
2022-12-12T05:34:05.932Z,22.80
2022-12-12T05:36:34.148Z,22.40
2022-12-12T05:39:02.500Z,22.20
2022-12-12T05:41:30.967Z,22.20
2022-12-12T05:43:59.112Z,22.40
2022-12-12T05:46:27.187Z,22.60
2022-12-12T05:48:55.572Z,22.70
2022-12-12T05:51:23.822Z,22.90
2022-12-12T05:53:51.875Z,22.80
2022-12-12T05:56:20.177Z,22.50
2022-12-12T05:58:48.374Z,22.30
2022-12-12T06:01:16.630Z,22.10
2022-12-12T06:03:44.907Z,22.10
2022-12-12T06:06:13.463Z,22.20
2022-12-12T06:08:41.622Z,22.40
2022-12-12T06:11:09.885Z,22.60
2022-12-12T06:13:38.644Z,22.70
2022-12-12T06:16:12.339Z,22.80
2022-12-12T06:18:40.689Z,22.60
2022-12-12T06:21:11.563Z,22.20
2022-12-12T06:23:43.765Z,22.20
2022-12-12T06:26:14.532Z,22.40
2022-12-12T06:28:43.476Z,22.50
2022-12-12T06:31:12.891Z,22.70
2022-12-12T06:33:42.919Z,22.80
2022-12-12T06:36:12.652Z,22.80
2022-12-12T06:38:41.869Z,22.50
2022-12-12T06:41:13.350Z,22.20
2022-12-12T06:43:42.592Z,22.30
2022-12-12T06:46:15.566Z,22.60
2022-12-12T06:48:44.780Z,22.70
2022-12-12T06:51:17.218Z,22.90
2022-12-12T06:53:45.459Z,22.90
2022-12-12T06:56:15.950Z,22.80
2022-12-12T06:58:44.814Z,22.70
2022-12-12T07:01:14.807Z,22.70
2022-12-12T07:03:43.352Z,22.70
2022-12-12T07:06:11.956Z,23.00
2022-12-12T07:08:40.053Z,23.30
2022-12-12T07:11:13.925Z,23.50
2022-12-12T07:13:42.506Z,23.70
2022-12-12T07:16:10.873Z,23.90
2022-12-12T07:18:39.766Z,24.00
2022-12-12T07:21:09.387Z,24.00
2022-12-12T07:23:37.920Z,24.10
2022-12-12T07:26:15.954Z,24.20
2022-12-12T07:28:44.601Z,24.30
2022-12-12T07:31:17.807Z,24.30
2022-12-12T07:33:46.755Z,24.40
2022-12-12T07:36:16.363Z,24.40
2022-12-12T07:38:44.721Z,24.50
2022-12-12T07:41:15.433Z,24.50
2022-12-12T07:47:02.269Z,24.60
2022-12-12T07:49:31.142Z,24.60
2022-12-12T07:51:59.231Z,24.70
2022-12-12T07:54:27.563Z,24.70
2022-12-12T07:56:55.892Z,24.70
2022-12-12T07:59:24.223Z,24.70
2022-12-12T08:01:52.539Z,24.80
2022-12-12T08:04:20.724Z,24.80
2022-12-12T08:06:51.634Z,24.80
2022-12-12T08:09:22.459Z,24.80
2022-12-12T08:11:50.586Z,24.90
2022-12-12T08:14:18.767Z,24.90
2022-12-12T08:16:47.212Z,24.90
2022-12-12T08:19:15.530Z,25.00
2022-12-12T08:21:44.358Z,24.90
2022-12-12T08:24:15.397Z,25.00
2022-12-12T08:26:44.112Z,25.00
2022-12-12T08:29:15.086Z,25.00
2022-12-12T08:31:43.636Z,25.00
2022-12-12T08:34:11.685Z,25.00
2022-12-12T08:36:41.332Z,25.10
2022-12-12T08:39:12.118Z,25.10
2022-12-12T08:41:42.422Z,25.10
2022-12-12T08:44:14.103Z,25.20
2022-12-12T08:46:43.025Z,25.10
2022-12-12T08:49:12.272Z,25.20
2022-12-12T08:51:44.215Z,25.20
2022-12-12T08:54:15.390Z,25.20
2022-12-12T08:56:43.926Z,25.20
2022-12-12T08:59:12.226Z,25.20
2022-12-12T09:01:41.096Z,25.20
2022-12-12T09:04:09.830Z,25.30
2022-12-12T09:06:38.090Z,25.30
2022-12-12T09:09:06.375Z,25.30
2022-12-12T09:11:34.614Z,25.30
2022-12-12T09:14:05.086Z,25.30
2022-12-12T09:16:33.449Z,25.40
2022-12-12T09:19:01.677Z,25.40
2022-12-12T09:21:29.976Z,25.40
2022-12-12T09:23:58.421Z,25.40
2022-12-12T09:26:26.707Z,25.40
2022-12-12T09:28:55.120Z,25.40
2022-12-12T09:31:23.411Z,25.50
2022-12-12T09:33:51.823Z,25.50
2022-12-12T09:36:20.345Z,25.40
2022-12-12T09:38:48.578Z,25.50
2022-12-12T09:41:20.031Z,25.50
2022-12-12T09:43:55.515Z,25.50
2022-12-12T09:46:39.284Z,25.50
2022-12-12T09:49:21.353Z,25.50
2022-12-12T09:51:51.483Z,25.60
2022-12-12T09:54:22.069Z,25.60
2022-12-12T09:57:27.381Z,25.50
2022-12-12T10:00:07.259Z,25.60
2022-12-12T10:03:00.346Z,25.60
2022-12-12T10:05:37.420Z,25.60
2022-12-12T10:08:31.167Z,25.60
2022-12-12T10:11:11.709Z,25.60
2022-12-12T10:13:40.346Z,25.60
2022-12-12T10:16:15.285Z,25.60
2022-12-12T10:18:55.599Z,25.60
2022-12-12T10:21:28.544Z,25.60
2022-12-12T10:24:20.167Z,25.60
2022-12-12T10:26:48.460Z,25.70
2022-12-12T10:29:20.479Z,25.70
2022-12-12T10:32:27.151Z,25.70
2022-12-12T10:35:46.104Z,25.70
2022-12-12T10:38:20.509Z,25.70
2022-12-12T10:41:12.255Z,25.70
2022-12-12T10:44:11.204Z,25.70
2022-12-12T10:46:54.694Z,25.80
2022-12-12T10:49:25.013Z,25.80
2022-12-12T10:51:54.802Z,25.80
2022-12-12T10:54:29.016Z,25.80
2022-12-12T10:57:20.353Z,25.80
2022-12-12T10:59:51.557Z,25.80
2022-12-12T11:02:38.154Z,25.80
2022-12-12T11:05:06.541Z,25.80
2022-12-12T11:07:43.482Z,25.80
2022-12-12T11:10:34.201Z,25.90
2022-12-12T11:13:12.847Z,25.90
2022-12-12T11:15:45.596Z,25.90
2022-12-12T11:18:25.074Z,25.90
2022-12-12T11:21:03.359Z,25.90
2022-12-12T11:23:33.164Z,25.90
2022-12-12T11:26:06.433Z,25.90
2022-12-12T11:28:38.218Z,25.90
2022-12-12T11:31:10.480Z,26.00
2022-12-12T11:33:46.420Z,26.00
2022-12-12T11:36:21.981Z,26.00
2022-12-12T11:38:54.850Z,26.00
2022-12-12T11:41:23.542Z,26.00
2022-12-12T11:43:51.729Z,26.00
2022-12-12T11:46:24.285Z,26.00
2022-12-12T11:48:52.540Z,26.00
2022-12-12T11:51:42.084Z,26.00
2022-12-12T11:54:31.245Z,26.00
2022-12-12T11:57:14.946Z,26.10
2022-12-12T12:00:15.320Z,26.10
2022-12-12T12:03:20.604Z,26.10
2022-12-12T12:06:07.108Z,26.10
2022-12-12T12:09:05.825Z,26.10
2022-12-12T12:11:41.912Z,26.10
2022-12-12T12:14:31.361Z,26.20
2022-12-12T12:17:23.807Z,26.10
2022-12-12T12:20:13.966Z,26.10
2022-12-12T12:23:05.164Z,26.10
2022-12-12T12:25:40.776Z,26.20
2022-12-12T12:28:15.091Z,26.20
2022-12-12T12:31:00.634Z,26.20
2022-12-12T12:33:41.152Z,26.20
2022-12-12T12:36:16.309Z,26.20
2022-12-12T12:39:19.468Z,26.20
2022-12-12T13:08:48.025Z,26.10
2022-12-12T13:11:23.931Z,26.10
2022-12-12T13:13:53.648Z,26.10
2022-12-12T13:16:25.546Z,26.10
2022-12-12T13:19:32.682Z,26.20
2022-12-12T13:22:27.278Z,26.20
2022-12-12T13:25:19.686Z,26.20
2022-12-12T13:27:52.823Z,26.30
2022-12-12T13:30:26.942Z,26.30
2022-12-12T13:33:20.000Z,26.30
2022-12-12T13:35:52.431Z,26.40
2022-12-12T13:38:26.958Z,26.40
2022-12-12T13:41:03.797Z,26.40
2022-12-12T14:12:20.140Z,26.30
2022-12-12T14:15:07.227Z,26.20
2022-12-12T14:17:42.545Z,26.20
2022-12-12T14:20:38.811Z,26.30
2022-12-12T14:23:11.200Z,26.30
2022-12-12T14:25:41.293Z,26.40
2022-12-12T14:28:20.634Z,26.40
2022-12-12T14:31:02.131Z,26.40
2022-12-12T14:33:45.102Z,26.50
2022-12-12T14:36:57.469Z,26.50
2022-12-12T14:39:54.143Z,26.60
2022-12-12T14:43:20.976Z,26.60
2022-12-12T14:45:36.458Z,26.60
2022-12-12T14:48:19.928Z,26.60
2022-12-12T14:50:53.700Z,26.70
2022-12-12T14:53:25.736Z,26.70
2022-12-12T14:56:03.494Z,26.70
2022-12-12T14:58:35.801Z,26.70
2022-12-12T15:01:06.017Z,26.80
2022-12-12T15:03:50.092Z,26.80
2022-12-12T15:06:51.774Z,26.80
2022-12-12T15:09:29.936Z,26.80
2022-12-12T15:12:32.287Z,26.80
2022-12-12T15:15:01.510Z,26.80
2022-12-12T15:17:33.937Z,26.80
2022-12-12T15:20:04.259Z,26.80
2022-12-12T15:22:32.472Z,26.80
2022-12-12T15:25:22.284Z,26.90
2022-12-12T15:27:56.160Z,26.90
2022-12-12T15:30:36.595Z,26.90
2022-12-12T15:33:07.991Z,27.00
2022-12-12T15:35:36.596Z,27.00
2022-12-12T15:38:14.294Z,27.00
2022-12-12T15:40:46.066Z,27.00
2022-12-12T15:43:24.855Z,27.00
2022-12-12T15:45:59.600Z,27.00
2022-12-12T15:48:28.768Z,27.00
2022-12-12T15:51:00.166Z,27.00
2022-12-12T15:53:38.944Z,26.90
2022-12-12T15:56:15.091Z,26.90
2022-12-12T15:58:52.899Z,26.90
2022-12-12T16:01:28.753Z,26.90
2022-12-12T16:04:05.396Z,26.90
2022-12-12T16:06:35.330Z,26.90
2022-12-12T16:09:12.393Z,26.90
2022-12-12T16:11:51.485Z,26.90
2022-12-12T16:14:25.670Z,26.90
2022-12-12T16:17:01.694Z,26.90
2022-12-12T16:19:53.462Z,26.90
2022-12-12T16:22:45.608Z,26.90
2022-12-12T16:25:20.424Z,26.90
2022-12-12T16:28:11.720Z,26.90
2022-12-12T16:30:42.190Z,26.80
2022-12-12T16:33:30.554Z,26.90
2022-12-12T16:36:00.056Z,26.90
2022-12-12T16:42:20.219Z,26.90
2022-12-12T16:44:48.716Z,26.90
2022-12-12T16:47:21.066Z,26.80
2022-12-12T16:49:50.435Z,26.90
2022-12-12T16:52:20.718Z,26.90
2022-12-12T16:54:53.597Z,26.80
2022-12-12T16:57:22.702Z,26.80
2022-12-12T16:59:50.604Z,26.90
2022-12-12T17:02:23.234Z,26.90
2022-12-12T17:04:52.164Z,26.90
2022-12-12T17:11:56.745Z,26.90
2022-12-12T17:14:25.119Z,26.90
2022-12-12T17:16:53.860Z,26.90
2022-12-12T17:19:28.203Z,26.90
2022-12-12T17:21:56.484Z,26.90
2022-12-12T17:24:24.801Z,26.90
2022-12-12T17:26:52.952Z,26.90
2022-12-12T17:29:21.935Z,26.90
2022-12-12T17:31:50.334Z,26.90
2022-12-12T17:34:18.355Z,26.80
2022-12-12T17:36:46.687Z,26.80
2022-12-12T17:39:15.228Z,26.80
2022-12-12T17:41:43.325Z,26.80
2022-12-12T17:44:11.576Z,26.80
2022-12-12T17:46:39.967Z,26.80
2022-12-12T17:49:08.192Z,26.80
2022-12-12T17:51:36.357Z,26.80
2022-12-12T17:54:05.108Z,26.80
2022-12-12T17:56:33.542Z,26.80
2022-12-12T17:59:02.034Z,26.80
2022-12-12T18:01:31.272Z,26.70
2022-12-12T18:04:00.860Z,26.70
2022-12-12T18:06:32.098Z,26.70
2022-12-12T18:09:04.717Z,26.70
2022-12-12T18:11:34.338Z,26.70
2022-12-12T18:14:06.613Z,26.70
2022-12-12T18:16:36.969Z,26.70
2022-12-12T18:19:05.478Z,26.70
2022-12-12T18:24:25.050Z,26.70
2022-12-12T18:26:55.307Z,26.70
2022-12-12T18:29:24.720Z,26.60
2022-12-12T18:31:53.368Z,26.60
2022-12-12T18:34:22.278Z,26.60
2022-12-12T18:36:50.752Z,26.60
2022-12-12T18:39:18.776Z,26.70
2022-12-12T18:41:48.482Z,26.60
2022-12-12T18:44:16.976Z,26.60
2022-12-12T18:46:45.230Z,26.60
2022-12-12T18:49:14.856Z,26.60
2022-12-12T18:51:44.154Z,26.60
2022-12-12T18:54:15.546Z,26.60
2022-12-12T18:56:46.651Z,26.60
2022-12-12T18:59:16.685Z,26.60
2022-12-12T19:01:45.394Z,26.60
2022-12-12T19:04:22.508Z,26.50
2022-12-12T19:09:14.046Z,26.60
2022-12-12T19:11:43.101Z,26.60
2022-12-12T19:14:13.120Z,26.60
2022-12-12T19:16:42.472Z,26.60
2022-12-12T19:19:13.619Z,26.60
2022-12-12T19:21:42.930Z,26.60
2022-12-12T19:24:11.894Z,26.60
2022-12-12T19:26:41.940Z,26.60
2022-12-12T19:29:19.806Z,26.60
2022-12-12T19:31:52.548Z,26.60
2022-12-12T19:34:23.749Z,26.60
2022-12-12T19:36:52.161Z,26.60
2022-12-12T19:39:21.187Z,26.60
2022-12-12T19:41:49.585Z,26.60
2022-12-12T19:44:17.761Z,26.60
2022-12-12T19:46:46.208Z,26.60
2022-12-12T19:49:15.694Z,26.60
2022-12-12T19:51:44.819Z,26.60
2022-12-12T19:54:19.823Z,26.60
2022-12-12T19:56:48.629Z,26.60
2022-12-12T19:59:18.762Z,26.50
2022-12-12T20:01:47.576Z,26.60
2022-12-12T20:04:18.790Z,26.60
2022-12-12T20:06:48.266Z,26.60
2022-12-12T20:09:22.923Z,26.60
2022-12-12T20:11:51.987Z,26.60
2022-12-12T20:14:22.939Z,26.50
2022-12-12T20:16:53.176Z,26.50
2022-12-12T20:19:23.020Z,26.60
2022-12-12T20:22:00.762Z,26.60
2022-12-12T20:24:33.798Z,26.50
2022-12-12T20:27:03.501Z,26.50
2022-12-12T20:29:33.016Z,26.50
2022-12-12T20:32:01.486Z,26.50
2022-12-12T20:34:30.452Z,26.50
2022-12-12T20:36:58.991Z,26.50
2022-12-12T20:39:27.442Z,26.50
2022-12-12T20:41:56.147Z,26.50
2022-12-12T20:44:24.779Z,26.50
2022-12-12T20:46:53.526Z,26.50
2022-12-12T20:49:22.486Z,26.50
2022-12-12T20:51:58.943Z,26.60
2022-12-12T20:54:29.714Z,26.50
2022-12-12T20:56:59.135Z,26.50
2022-12-12T20:59:27.972Z,26.50
2022-12-12T21:01:56.372Z,26.50
2022-12-12T21:04:24.823Z,26.40
2022-12-12T21:06:53.137Z,26.40
2022-12-12T21:09:25.579Z,26.40
2022-12-12T21:11:57.144Z,26.50
2022-12-12T21:14:27.310Z,26.50
2022-12-12T21:16:56.084Z,26.60
2022-12-12T21:19:25.046Z,26.60
2022-12-12T21:21:54.163Z,26.60
2022-12-12T21:24:22.553Z,26.60
2022-12-12T21:26:51.043Z,26.70
2022-12-12T21:29:18.927Z,26.70
2022-12-12T21:31:51.405Z,26.70
2022-12-12T21:34:24.336Z,26.70
2022-12-12T21:36:54.883Z,26.70
2022-12-12T21:39:25.672Z,26.80
2022-12-12T21:41:54.770Z,26.80
2022-12-12T21:44:23.191Z,26.80
2022-12-12T21:46:51.503Z,26.80
2022-12-12T21:49:20.254Z,26.80
2022-12-12T21:51:48.915Z,26.80
2022-12-12T21:54:17.150Z,26.70
2022-12-12T21:56:45.932Z,26.70
2022-12-12T21:59:14.986Z,26.70
2022-12-12T22:01:44.334Z,26.70
2022-12-12T22:04:13.542Z,26.70
2022-12-12T22:06:44.320Z,26.70
2022-12-12T22:09:13.917Z,26.70
2022-12-12T22:11:51.924Z,26.70
2022-12-12T22:14:21.149Z,26.70
2022-12-12T22:16:50.230Z,26.60
2022-12-12T22:19:19.216Z,26.60
2022-12-12T22:21:50.003Z,26.60
2022-12-12T22:24:19.128Z,26.60
2022-12-12T22:26:51.148Z,26.60
2022-12-12T22:29:21.008Z,26.60
2022-12-12T22:31:49.578Z,26.60
2022-12-12T22:34:21.470Z,26.60
2022-12-12T22:36:50.479Z,26.60
2022-12-12T22:39:25.111Z,26.60
2022-12-12T22:41:55.719Z,26.60
2022-12-12T22:44:25.132Z,26.60
2022-12-12T22:46:55.208Z,26.60
2022-12-12T22:49:25.545Z,26.60
2022-12-12T22:51:55.973Z,26.60
2022-12-12T22:54:24.789Z,26.60
2022-12-12T22:56:52.798Z,26.60
2022-12-12T22:59:21.104Z,26.60
2022-12-12T23:01:49.583Z,26.60
2022-12-12T23:04:17.614Z,26.60
2022-12-12T23:06:46.447Z,26.60
2022-12-12T23:09:32.817Z,26.60
2022-12-12T23:12:01.212Z,26.60
2022-12-12T23:14:31.439Z,26.60
2022-12-12T23:17:00.111Z,26.60
2022-12-12T23:19:29.617Z,26.70
2022-12-12T23:21:58.059Z,26.70
2022-12-12T23:24:26.417Z,26.70
2022-12-12T23:26:54.792Z,26.70
2022-12-12T23:29:23.034Z,26.70
2022-12-12T23:31:51.488Z,26.70
2022-12-12T23:34:21.164Z,26.70
2022-12-12T23:36:51.201Z,26.70
2022-12-12T23:39:20.078Z,26.80
2022-12-12T23:41:48.546Z,26.80
2022-12-12T23:44:18.843Z,26.80
2022-12-12T23:46:49.039Z,26.80
2022-12-12T23:49:20.930Z,26.80
2022-12-12T23:51:52.298Z,26.80
2022-12-12T23:54:26.672Z,26.80
2022-12-12T23:56:55.920Z,26.80
2022-12-12T23:59:27.459Z,26.80
